DLH131 YSSY-YBBN
Flight info
| Callsign | DLH131 |
|---|---|
| Flight time | N/A |
| Altitude | 37000 |
| Route | OLSEM Y193 BANDA H252 GOMOL |
| Aircraft | B748/H-SDE3FGHIM1M2RWXY/LB1 |
Departure
| Time | 2026-04-26 06:59 |
|---|---|
| Airport | Sydney Kingsford Smith International Airport (YSSY) |
Arrival
| Time | N/A |
|---|---|
| Airport | Brisbane International Airport (YBBN) |
| Time | Latitude | Longitude | Altitude | Speed | Heading |
|---|---|---|---|---|---|
| 2026-04-26 06:01 | -33.93607 | 151.17762 | 40 ft | 0 kts | 304° |
| 2026-04-26 06:34 | -33.93608 | 151.17763 | 40 ft | 2 kts | 304° |
| 2026-04-26 06:34 | -33.93618 | 151.17781 | 40 ft | 3 kts | 302° |
| 2026-04-26 06:34 | -33.93626 | 151.17806 | 39 ft | 3 kts | 256° |
| 2026-04-26 06:34 | -33.93625 | 151.17819 | 39 ft | 0 kts | 226° |
| 2026-04-26 06:35 | -33.93625 | 151.17821 | 39 ft | 0 kts | 214° |
| 2026-04-26 06:38 | -33.93625 | 151.17820 | 39 ft | 0 kts | 214° |
| 2026-04-26 06:39 | -33.93629 | 151.17818 | 38 ft | 2 kts | 207° |
| 2026-04-26 06:39 | -33.93647 | 151.17811 | 40 ft | 0 kts | 196° |
| 2026-04-26 06:39 | -33.93669 | 151.17805 | 40 ft | 3 kts | 193° |
| 2026-04-26 06:39 | -33.93721 | 151.17793 | 39 ft | 10 kts | 189° |
| 2026-04-26 06:40 | -33.93820 | 151.17777 | 31 ft | 15 kts | 184° |
| 2026-04-26 06:40 | -33.93892 | 151.17781 | 31 ft | 2 kts | 172° |
| 2026-04-26 06:40 | -33.93934 | 151.17790 | 32 ft | 11 kts | 169° |
| 2026-04-26 06:40 | -33.94024 | 151.17812 | 33 ft | 14 kts | 168° |
| 2026-04-26 06:41 | -33.94096 | 151.17831 | 33 ft | 6 kts | 167° |
| 2026-04-26 06:41 | -33.94165 | 151.17850 | 34 ft | 14 kts | 167° |
| 2026-04-26 06:41 | -33.94292 | 151.17883 | 34 ft | 17 kts | 168° |
| 2026-04-26 06:41 | -33.94399 | 151.17906 | 34 ft | 14 kts | 176° |
| 2026-04-26 06:42 | -33.94492 | 151.17892 | 33 ft | 14 kts | 189° |
| 2026-04-26 06:42 | -33.94571 | 151.17897 | 32 ft | 11 kts | 171° |
| 2026-04-26 06:42 | -33.94641 | 151.17914 | 33 ft | 12 kts | 168° |
| 2026-04-26 06:42 | -33.94740 | 151.17940 | 32 ft | 17 kts | 168° |
| 2026-04-26 06:43 | -33.94868 | 151.17974 | 30 ft | 17 kts | 167° |
| 2026-04-26 06:43 | -33.94968 | 151.18000 | 33 ft | 14 kts | 168° |
| 2026-04-26 06:43 | -33.94983 | 151.18004 | 34 ft | 2 kts | 167° |
| 2026-04-26 06:43 | -33.94998 | 151.18008 | 34 ft | 0 kts | 167° |
| 2026-04-26 06:44 | -33.95000 | 151.18009 | 34 ft | 2 kts | 167° |
| 2026-04-26 06:44 | -33.95010 | 151.18012 | 35 ft | 0 kts | 167° |
| 2026-04-26 06:45 | -33.95018 | 151.18014 | 35 ft | 3 kts | 167° |
| 2026-04-26 06:45 | -33.95031 | 151.18017 | 35 ft | 2 kts | 168° |
| 2026-04-26 06:45 | -33.95053 | 151.18021 | 36 ft | 2 kts | 175° |
| 2026-04-26 06:45 | -33.95067 | 151.18020 | 36 ft | 3 kts | 185° |
| 2026-04-26 06:46 | -33.95096 | 151.18015 | 36 ft | 4 kts | 193° |
| 2026-04-26 06:46 | -33.95108 | 151.18007 | 36 ft | 1 kts | 215° |
| 2026-04-26 06:46 | -33.95113 | 151.17998 | 36 ft | 3 kts | 236° |
| 2026-04-26 06:46 | -33.95121 | 151.17981 | 36 ft | 0 kts | 243° |
| 2026-04-26 06:47 | -33.95122 | 151.17978 | 36 ft | 0 kts | 248° |
| 2026-04-26 06:47 | -33.95132 | 151.17943 | 35 ft | 9 kts | 251° |
| 2026-04-26 06:47 | -33.95134 | 151.17936 | 35 ft | 0 kts | 253° |
| 2026-04-26 06:51 | -33.95145 | 151.17927 | 35 ft | 2 kts | 205° |
| 2026-04-26 06:51 | -33.95161 | 151.17923 | 35 ft | 3 kts | 187° |
| 2026-04-26 06:52 | -33.95196 | 151.17913 | 34 ft | 3 kts | 203° |
| 2026-04-26 06:52 | -33.95212 | 151.17900 | 34 ft | 2 kts | 223° |
| 2026-04-26 06:52 | -33.95216 | 151.17885 | 33 ft | 4 kts | 251° |
| 2026-04-26 06:52 | -33.95232 | 151.17815 | 33 ft | 14 kts | 257° |
| 2026-04-26 06:53 | -33.95261 | 151.17659 | 31 ft | 20 kts | 251° |
| 2026-04-26 06:53 | -33.95324 | 151.17585 | 29 ft | 7 kts | 198° |
| 2026-04-26 06:53 | -33.95347 | 151.17581 | 29 ft | 1 kts | 170° |
| 2026-04-26 06:53 | -33.95355 | 151.17583 | 29 ft | 1 kts | 168° |
| 2026-04-26 06:54 | -33.95389 | 151.17592 | 29 ft | 10 kts | 168° |
| 2026-04-26 06:54 | -33.95493 | 151.17619 | 30 ft | 20 kts | 167° |
| 2026-04-26 06:54 | -33.95662 | 151.17664 | 34 ft | 29 kts | 167° |
| 2026-04-26 06:54 | -33.95878 | 151.17720 | 32 ft | 34 kts | 168° |
| 2026-04-26 06:55 | -33.96107 | 151.17780 | 34 ft | 27 kts | 168° |
| 2026-04-26 06:55 | -33.96286 | 151.17826 | 32 ft | 26 kts | 167° |
| 2026-04-26 06:55 | -33.96378 | 151.17853 | 33 ft | 6 kts | 161° |
| 2026-04-26 06:55 | -33.96399 | 151.17867 | 34 ft | 3 kts | 149° |
| 2026-04-26 06:56 | -33.96410 | 151.17878 | 34 ft | 1 kts | 129° |
| 2026-04-26 06:56 | -33.96410 | 151.17880 | 34 ft | 0 kts | 124° |
| 2026-04-26 06:56 | -33.96411 | 151.17881 | 34 ft | 1 kts | 123° |
| 2026-04-26 06:57 | -33.96423 | 151.17915 | 34 ft | 6 kts | 108° |
| 2026-04-26 06:57 | -33.96426 | 151.17975 | 34 ft | 9 kts | 84° |
| 2026-04-26 06:57 | -33.96406 | 151.18024 | 34 ft | 8 kts | 51° |
| 2026-04-26 06:57 | -33.96371 | 151.18048 | 34 ft | 3 kts | 10° |
| 2026-04-26 06:58 | -33.96323 | 151.18036 | 33 ft | 28 kts | 347° |
| 2026-04-26 06:58 | -33.95785 | 151.17894 | 30 ft | 128 kts | 348° |
| 2026-04-26 06:58 | -33.94628 | 151.17595 | 36 ft | 208 kts | 347° |
| 2026-04-26 06:58 | -33.93102 | 151.17222 | 324 ft | 232 kts | 348° |
| 2026-04-26 06:59 | -33.91480 | 151.16799 | 774 ft | 247 kts | 346° |
| 2026-04-26 06:59 | -33.89716 | 151.16290 | 1053 ft | 278 kts | 346° |
| 2026-04-26 06:59 | -33.87718 | 151.15719 | 1618 ft | 303 kts | 346° |
| 2026-04-26 06:59 | -33.85731 | 151.14730 | 2426 ft | 319 kts | 324° |
| 2026-04-26 07:00 | -33.84072 | 151.12849 | 3206 ft | 337 kts | 310° |
| 2026-04-26 07:00 | -33.82613 | 151.10569 | 4042 ft | 350 kts | 306° |
| 2026-04-26 07:00 | -33.81164 | 151.08185 | 4768 ft | 361 kts | 307° |
| 2026-04-26 07:00 | -33.79569 | 151.05835 | 4999 ft | 365 kts | 310° |
| 2026-04-26 07:01 | -33.77894 | 151.03567 | 5001 ft | 364 kts | 311° |
| 2026-04-26 07:01 | -33.76240 | 151.01261 | 5002 ft | 363 kts | 309° |
| 2026-04-26 07:01 | -33.74631 | 150.98918 | 5004 ft | 363 kts | 309° |
| 2026-04-26 07:01 | -33.72962 | 150.96644 | 5000 ft | 363 kts | 317° |
| 2026-04-26 07:02 | -33.70847 | 150.95003 | 4995 ft | 364 kts | 336° |
| 2026-04-26 07:02 | -33.68398 | 150.94245 | 4996 ft | 365 kts | 354° |
| 2026-04-26 07:02 | -33.65872 | 150.94452 | 5000 ft | 365 kts | 13° |
| 2026-04-26 07:02 | -33.63527 | 150.95599 | 5006 ft | 366 kts | 31° |
| 2026-04-26 07:03 | -33.61597 | 150.97573 | 5012 ft | 366 kts | 50° |
| 2026-04-26 07:03 | -33.60276 | 151.00174 | 5010 ft | 367 kts | 68° |
| 2026-04-26 07:03 | -33.59700 | 151.03141 | 5013 ft | 367 kts | 86° |
| 2026-04-26 07:03 | -33.59919 | 151.06177 | 5011 ft | 367 kts | 103° |
| 2026-04-26 07:04 | -33.60647 | 151.09076 | 5013 ft | 367 kts | 109° |
| 2026-04-26 07:04 | -33.61451 | 151.11979 | 5011 ft | 367 kts | 107° |
| 2026-04-26 07:04 | -33.62117 | 151.14931 | 5012 ft | 367 kts | 102° |
| 2026-04-26 07:04 | -33.62433 | 151.17966 | 5012 ft | 366 kts | 93° |
| 2026-04-26 07:05 | -33.62514 | 151.21021 | 5012 ft | 367 kts | 90° |
| 2026-04-26 07:05 | -33.62562 | 151.24086 | 5010 ft | 367 kts | 92° |
| 2026-04-26 07:05 | -33.62751 | 151.27133 | 5008 ft | 367 kts | 95° |
| 2026-04-26 07:05 | -33.62964 | 151.30181 | 5011 ft | 366 kts | 94° |
| 2026-04-26 07:06 | -33.63170 | 151.33230 | 5008 ft | 366 kts | 94° |
| 2026-04-26 07:06 | -33.63358 | 151.36280 | 5009 ft | 366 kts | 94° |
| 2026-04-26 07:06 | -33.63532 | 151.39327 | 5009 ft | 366 kts | 94° |
| 2026-04-26 07:06 | -33.63710 | 151.42370 | 5009 ft | 365 kts | 94° |
| 2026-04-26 07:07 | -33.63893 | 151.45420 | 5009 ft | 366 kts | 94° |
| 2026-04-26 07:07 | -33.64073 | 151.48428 | 5009 ft | 366 kts | 94° |
| 2026-04-26 07:07 | -33.64251 | 151.51470 | 5009 ft | 365 kts | 94° |
| 2026-04-26 07:07 | -33.64440 | 151.54517 | 5009 ft | 365 kts | 97° |
| 2026-04-26 07:08 | -33.65096 | 151.57455 | 5002 ft | 366 kts | 114° |
| 2026-04-26 07:08 | -33.66417 | 151.60060 | 5001 ft | 365 kts | 130° |
| 2026-04-26 07:08 | -33.68276 | 151.62119 | 5004 ft | 365 kts | 144° |
| 2026-04-26 07:08 | -33.70422 | 151.63743 | 5010 ft | 365 kts | 150° |
| 2026-04-26 07:09 | -33.72642 | 151.65222 | 5010 ft | 364 kts | 152° |
| 2026-04-26 07:09 | -33.74885 | 151.66651 | 5008 ft | 365 kts | 153° |
| 2026-04-26 07:09 | -33.77135 | 151.68062 | 5011 ft | 365 kts | 153° |
| 2026-04-26 07:09 | -33.79361 | 151.69450 | 5011 ft | 365 kts | 153° |
| 2026-04-26 07:10 | -33.85416 | 151.73185 | 5008 ft | 365 kts | 157° |
| 2026-04-26 07:11 | -33.91191 | 151.73657 | 5279 ft | 365 kts | 197° |
| 2026-04-26 07:11 | -33.92774 | 151.72867 | 5950 ft | 366 kts | 208° |
| 2026-04-26 07:11 | -33.94805 | 151.71070 | 7098 ft | 370 kts | 225° |
| 2026-04-26 07:11 | -33.96395 | 151.68604 | 8205 ft | 376 kts | 240° |
| 2026-04-26 07:12 | -33.97391 | 151.65679 | 9288 ft | 381 kts | 255° |
| 2026-04-26 07:12 | -33.97966 | 151.62536 | 10336 ft | 387 kts | 260° |
| 2026-04-26 07:12 | -33.98391 | 151.59308 | 11337 ft | 393 kts | 262° |
| 2026-04-26 07:12 | -33.98763 | 151.56026 | 12319 ft | 398 kts | 262° |
| 2026-04-26 07:13 | -33.99118 | 151.52696 | 13234 ft | 404 kts | 263° |
| 2026-04-26 07:13 | -33.99472 | 151.49309 | 14112 ft | 410 kts | 263° |
| 2026-04-26 07:13 | -33.99828 | 151.45876 | 14953 ft | 415 kts | 263° |
| 2026-04-26 07:13 | -34.00178 | 151.42405 | 15760 ft | 420 kts | 265° |
| 2026-04-26 07:14 | -34.00076 | 151.38916 | 16520 ft | 425 kts | 279° |
| 2026-04-26 07:14 | -33.99251 | 151.35487 | 17274 ft | 429 kts | 293° |
| 2026-04-26 07:14 | -33.97751 | 151.32358 | 18003 ft | 434 kts | 307° |
| 2026-04-26 07:14 | -33.95662 | 151.29711 | 18717 ft | 439 kts | 320° |
| 2026-04-26 07:15 | -33.93099 | 151.27693 | 19396 ft | 444 kts | 333° |
| 2026-04-26 07:15 | -33.90187 | 151.26405 | 20057 ft | 448 kts | 346° |
| 2026-04-26 07:15 | -33.87080 | 151.25921 | 20692 ft | 453 kts | 359° |
| 2026-04-26 07:15 | -33.83925 | 151.26267 | 21304 ft | 458 kts | 12° |
| 2026-04-26 07:16 | -33.80882 | 151.27436 | 21887 ft | 462 kts | 24° |
| 2026-04-26 07:16 | -33.78126 | 151.29349 | 22443 ft | 466 kts | 36° |
| 2026-04-26 07:16 | -33.75718 | 151.31975 | 22991 ft | 470 kts | 49° |
| 2026-04-26 07:16 | -33.73810 | 151.35181 | 23516 ft | 474 kts | 61° |
| 2026-04-26 07:17 | -33.72480 | 151.38812 | 24028 ft | 477 kts | 71° |
| 2026-04-26 07:17 | -33.71507 | 151.42638 | 24516 ft | 481 kts | 74° |
| 2026-04-26 07:17 | -33.70585 | 151.46508 | 24977 ft | 484 kts | 73° |
| 2026-04-26 07:17 | -33.69557 | 151.50345 | 25569 ft | 484 kts | 70° |
| 2026-04-26 07:18 | -33.68325 | 151.54126 | 25984 ft | 489 kts | 66° |
| 2026-04-26 07:18 | -33.66744 | 151.57751 | 26401 ft | 492 kts | 57° |
| 2026-04-26 07:18 | -33.64605 | 151.60978 | 26847 ft | 496 kts | 45° |
| 2026-04-26 07:18 | -33.61960 | 151.63633 | 27286 ft | 499 kts | 34° |
| 2026-04-26 07:19 | -33.58996 | 151.65802 | 27842 ft | 499 kts | 29° |
| 2026-04-26 07:19 | -33.55913 | 151.67790 | 27995 ft | 502 kts | 27° |
| 2026-04-26 07:19 | -33.52832 | 151.69771 | 27999 ft | 501 kts | 30° |
| 2026-04-26 07:19 | -33.49856 | 151.71841 | 27994 ft | 500 kts | 27° |
| 2026-04-26 07:20 | -33.46632 | 151.73388 | 28015 ft | 499 kts | 17° |
| 2026-04-26 07:20 | -33.43310 | 151.74595 | 27999 ft | 498 kts | 16° |
| 2026-04-26 07:20 | -33.39970 | 151.75683 | 28011 ft | 498 kts | 14° |
| 2026-04-26 07:21 | -33.33262 | 151.77757 | 28008 ft | 498 kts | 15° |
| 2026-04-26 07:21 | -33.26577 | 151.79977 | 28013 ft | 498 kts | 15° |
| 2026-04-26 07:21 | -33.23224 | 151.81036 | 28317 ft | 498 kts | 14° |
| 2026-04-26 07:22 | -33.19877 | 151.82101 | 28997 ft | 497 kts | 15° |
| 2026-04-26 07:22 | -33.16544 | 151.83185 | 29651 ft | 495 kts | 15° |
| 2026-04-26 07:22 | -33.13220 | 151.84265 | 30255 ft | 495 kts | 15° |
| 2026-04-26 07:22 | -33.09896 | 151.85330 | 30860 ft | 494 kts | 14° |
| 2026-04-26 07:23 | -33.06575 | 151.86389 | 31425 ft | 493 kts | 15° |
| 2026-04-26 07:23 | -33.03263 | 151.87454 | 31958 ft | 492 kts | 15° |
| 2026-04-26 07:23 | -32.99945 | 151.88523 | 32305 ft | 496 kts | 15° |
| 2026-04-26 07:23 | -32.96592 | 151.89598 | 32635 ft | 499 kts | 15° |
| 2026-04-26 07:24 | -32.93269 | 151.90659 | 32968 ft | 502 kts | 15° |
| 2026-04-26 07:24 | -32.89886 | 151.91741 | 33350 ft | 504 kts | 15° |
| 2026-04-26 07:24 | -32.86498 | 151.92826 | 33740 ft | 505 kts | 15° |
| 2026-04-26 07:24 | -32.83104 | 151.93912 | 34149 ft | 506 kts | 15° |
| 2026-04-26 07:25 | -32.79704 | 151.94996 | 34548 ft | 506 kts | 15° |
| 2026-04-26 07:25 | -32.76303 | 151.96081 | 34948 ft | 506 kts | 15° |
| 2026-04-26 07:25 | -32.72900 | 151.97166 | 35340 ft | 506 kts | 15° |
| 2026-04-26 07:25 | -32.69498 | 151.98250 | 35712 ft | 506 kts | 15° |
| 2026-04-26 07:26 | -32.66101 | 151.99331 | 36062 ft | 506 kts | 15° |
| 2026-04-26 07:26 | -32.62697 | 152.00413 | 36371 ft | 507 kts | 15° |
| 2026-04-26 07:26 | -32.59351 | 152.01476 | 36669 ft | 507 kts | 15° |
| 2026-04-26 07:26 | -32.55934 | 152.02562 | 36915 ft | 510 kts | 15° |
| 2026-04-26 07:27 | -32.52505 | 152.03650 | 37162 ft | 511 kts | 15° |
| 2026-04-26 07:27 | -32.45594 | 152.05839 | 37246 ft | 514 kts | 15° |
| 2026-04-26 07:28 | -32.38667 | 152.08031 | 37245 ft | 515 kts | 15° |
| 2026-04-26 07:28 | -32.31728 | 152.10223 | 37246 ft | 516 kts | 15° |
| 2026-04-26 07:29 | -32.24832 | 152.12398 | 37257 ft | 514 kts | 15° |
| 2026-04-26 07:29 | -32.17951 | 152.14564 | 37252 ft | 515 kts | 14° |
| 2026-04-26 07:30 | -32.11008 | 152.16747 | 37259 ft | 516 kts | 14° |
| 2026-04-26 07:30 | -32.04070 | 152.18926 | 37260 ft | 516 kts | 14° |
| 2026-04-26 07:31 | -31.97122 | 152.21103 | 37262 ft | 516 kts | 14° |
| 2026-04-26 07:31 | -31.90177 | 152.23276 | 37260 ft | 516 kts | 14° |
| 2026-04-26 07:32 | -31.83273 | 152.25433 | 37259 ft | 516 kts | 14° |
| 2026-04-26 07:32 | -31.76327 | 152.27600 | 37259 ft | 517 kts | 14° |
| 2026-04-26 07:33 | -31.69371 | 152.29767 | 37259 ft | 517 kts | 14° |
| 2026-04-26 07:33 | -31.62413 | 152.31930 | 37260 ft | 517 kts | 14° |
| 2026-04-26 07:34 | -31.55451 | 152.34092 | 37267 ft | 517 kts | 14° |
| 2026-04-26 07:34 | -31.48548 | 152.36232 | 37265 ft | 515 kts | 14° |
| 2026-04-26 07:35 | -31.41597 | 152.38384 | 37263 ft | 516 kts | 14° |
| 2026-04-26 07:35 | -31.34661 | 152.40528 | 37268 ft | 516 kts | 14° |
| 2026-04-26 07:35 | -31.31184 | 152.41601 | 37525 ft | 516 kts | 14° |
| 2026-04-26 07:36 | -31.27709 | 152.42673 | 37836 ft | 517 kts | 14° |
| 2026-04-26 07:36 | -31.24233 | 152.43745 | 38139 ft | 517 kts | 14° |
| 2026-04-26 07:36 | -31.20754 | 152.44816 | 38422 ft | 517 kts | 13° |
| 2026-04-26 07:36 | -31.17278 | 152.45886 | 38590 ft | 515 kts | 14° |
| 2026-04-26 07:37 | -31.13850 | 152.46940 | 38828 ft | 516 kts | 13° |
| 2026-04-26 07:37 | -31.10376 | 152.48007 | 39038 ft | 516 kts | 13° |
| 2026-04-26 07:37 | -31.06898 | 152.49076 | 39229 ft | 517 kts | 13° |
| 2026-04-26 07:37 | -31.03379 | 152.50156 | 39423 ft | 517 kts | 13° |
| 2026-04-26 07:38 | -30.99941 | 152.51210 | 39614 ft | 517 kts | 13° |
| 2026-04-26 07:38 | -30.96460 | 152.52276 | 39804 ft | 517 kts | 13° |
| 2026-04-26 07:38 | -30.92984 | 152.53341 | 39992 ft | 518 kts | 13° |
| 2026-04-26 07:38 | -30.89488 | 152.54411 | 40177 ft | 518 kts | 13° |
| 2026-04-26 07:39 | -30.85994 | 152.55478 | 40377 ft | 519 kts | 13° |
| 2026-04-26 07:39 | -30.82497 | 152.56546 | 40556 ft | 519 kts | 13° |
| 2026-04-26 07:39 | -30.79021 | 152.57661 | 40750 ft | 519 kts | 16° |
| 2026-04-26 07:39 | -30.75578 | 152.58933 | 40943 ft | 519 kts | 15° |
| 2026-04-26 07:40 | -30.72123 | 152.60174 | 41153 ft | 519 kts | 15° |
| 2026-04-26 07:40 | -30.68666 | 152.61414 | 41354 ft | 519 kts | 16° |
| 2026-04-26 07:40 | -30.65223 | 152.62669 | 41548 ft | 519 kts | 16° |
| 2026-04-26 07:40 | -30.61778 | 152.63927 | 41729 ft | 519 kts | 15° |
| 2026-04-26 07:41 | -30.58325 | 152.65176 | 41906 ft | 519 kts | 15° |
| 2026-04-26 07:41 | -30.54879 | 152.66416 | 42098 ft | 519 kts | 15° |
| 2026-04-26 07:41 | -30.51435 | 152.67661 | 42268 ft | 519 kts | 15° |
| 2026-04-26 07:41 | -30.48034 | 152.68894 | 42441 ft | 519 kts | 15° |
| 2026-04-26 07:42 | -30.44590 | 152.70139 | 42598 ft | 518 kts | 15° |
| 2026-04-26 07:42 | -30.41143 | 152.71380 | 42761 ft | 518 kts | 15° |
| 2026-04-26 07:42 | -30.37697 | 152.72621 | 42913 ft | 518 kts | 15° |
| 2026-04-26 07:42 | -30.34257 | 152.73862 | 43044 ft | 518 kts | 15° |
| 2026-04-26 07:43 | -30.30814 | 152.75103 | 43209 ft | 517 kts | 15° |
| 2026-04-26 07:43 | -30.24004 | 152.77552 | 43246 ft | 503 kts | 15° |
| 2026-04-26 07:44 | -30.17408 | 152.79918 | 43250 ft | 500 kts | 15° |
| 2026-04-26 07:44 | -30.10723 | 152.82315 | 43261 ft | 505 kts | 15° |
| 2026-04-26 07:45 | -30.03997 | 152.84725 | 43259 ft | 506 kts | 15° |
| 2026-04-26 07:45 | -29.97256 | 152.87134 | 43254 ft | 506 kts | 15° |
| 2026-04-26 07:46 | -29.90532 | 152.89536 | 43250 ft | 505 kts | 15° |
| 2026-04-26 07:46 | -29.83808 | 152.91932 | 43238 ft | 506 kts | 15° |
| 2026-04-26 07:47 | -29.77080 | 152.94327 | 43236 ft | 505 kts | 15° |
| 2026-04-26 07:47 | -29.70364 | 152.96714 | 43238 ft | 505 kts | 15° |
| 2026-04-26 07:48 | -29.63644 | 152.99100 | 43251 ft | 506 kts | 14° |
| 2026-04-26 07:48 | -29.56948 | 153.01473 | 43245 ft | 507 kts | 14° |
| 2026-04-26 07:49 | -29.50212 | 153.03858 | 43249 ft | 506 kts | 14° |
| 2026-04-26 07:49 | -29.43478 | 153.06238 | 43228 ft | 506 kts | 14° |
| 2026-04-26 07:50 | -29.33371 | 153.09805 | 43224 ft | 505 kts | 14° |
| 2026-04-26 07:50 | -29.26632 | 153.12179 | 43229 ft | 506 kts | 14° |
| 2026-04-26 07:51 | -29.19952 | 153.14532 | 43214 ft | 505 kts | 14° |
| 2026-04-26 07:51 | -29.13240 | 153.16890 | 43220 ft | 502 kts | 14° |
| 2026-04-26 07:52 | -29.06554 | 153.19237 | 43216 ft | 502 kts | 14° |
| 2026-04-26 07:52 | -28.99874 | 153.21579 | 42855 ft | 503 kts | 14° |
| 2026-04-26 07:53 | -28.96522 | 153.22752 | 42487 ft | 504 kts | 14° |
| 2026-04-26 07:53 | -28.93169 | 153.23926 | 42148 ft | 504 kts | 14° |
| 2026-04-26 07:53 | -28.89815 | 153.25099 | 41811 ft | 505 kts | 14° |
| 2026-04-26 07:53 | -28.86498 | 153.26258 | 41503 ft | 505 kts | 14° |
| 2026-04-26 07:54 | -28.83093 | 153.27448 | 41202 ft | 506 kts | 14° |
| 2026-04-26 07:54 | -28.79766 | 153.28609 | 40904 ft | 506 kts | 14° |
| 2026-04-26 07:54 | -28.76397 | 153.29784 | 40607 ft | 506 kts | 14° |
| 2026-04-26 07:54 | -28.73030 | 153.30957 | 40319 ft | 507 kts | 14° |
| 2026-04-26 07:55 | -28.69658 | 153.32132 | 40026 ft | 507 kts | 13° |
| 2026-04-26 07:55 | -28.66277 | 153.33308 | 39737 ft | 507 kts | 13° |
| 2026-04-26 07:55 | -28.62896 | 153.34484 | 39467 ft | 508 kts | 13° |
| 2026-04-26 07:55 | -28.59509 | 153.35662 | 39194 ft | 508 kts | 13° |
| 2026-04-26 07:56 | -28.56128 | 153.36837 | 38932 ft | 509 kts | 13° |
| 2026-04-26 07:56 | -28.53886 | 153.37615 | 38723 ft | 509 kts | 13° |
| 2026-04-26 07:56 | -28.49352 | 153.39188 | 38271 ft | 510 kts | 13° |
| 2026-04-26 07:56 | -28.45956 | 153.40366 | 37940 ft | 510 kts | 13° |
| 2026-04-26 07:57 | -28.42553 | 153.41545 | 37622 ft | 511 kts | 13° |
| 2026-04-26 07:57 | -28.40299 | 153.42325 | 37420 ft | 512 kts | 13° |
| 2026-04-26 07:57 | -28.36891 | 153.43504 | 37101 ft | 512 kts | 13° |
| 2026-04-26 07:57 | -28.33478 | 153.44685 | 36833 ft | 513 kts | 13° |
| 2026-04-26 07:58 | -28.30074 | 153.45862 | 36718 ft | 509 kts | 13° |
| 2026-04-26 07:58 | -28.26696 | 153.47029 | 36667 ft | 505 kts | 13° |
| 2026-04-26 07:58 | -28.20023 | 153.49283 | 36594 ft | 493 kts | 7° |
| 2026-04-26 07:59 | -28.16673 | 153.49800 | 36602 ft | 481 kts | 357° |
| 2026-04-26 07:59 | -28.13375 | 153.49644 | 36598 ft | 469 kts | 347° |
| 2026-04-26 07:59 | -28.07061 | 153.48375 | 36473 ft | 461 kts | 345° |
| 2026-04-26 08:00 | -28.03906 | 153.47714 | 36289 ft | 461 kts | 345° |
| 2026-04-26 08:00 | -28.00741 | 153.47055 | 36064 ft | 463 kts | 345° |
| 2026-04-26 08:00 | -27.97559 | 153.46401 | 35821 ft | 464 kts | 345° |
| 2026-04-26 08:00 | -27.94377 | 153.45744 | 35584 ft | 466 kts | 345° |
| 2026-04-26 08:01 | -27.91183 | 153.45082 | 35337 ft | 468 kts | 345° |
| 2026-04-26 08:01 | -27.87970 | 153.44417 | 35092 ft | 470 kts | 345° |
| 2026-04-26 08:01 | -27.84748 | 153.43753 | 34857 ft | 471 kts | 345° |
| 2026-04-26 08:01 | -27.81558 | 153.43096 | 34619 ft | 473 kts | 345° |
| 2026-04-26 08:02 | -27.78305 | 153.42424 | 34387 ft | 475 kts | 345° |
| 2026-04-26 08:02 | -27.75047 | 153.41751 | 34157 ft | 476 kts | 345° |
| 2026-04-26 08:02 | -27.71779 | 153.41079 | 33907 ft | 478 kts | 345° |
| 2026-04-26 08:02 | -27.68503 | 153.40405 | 33665 ft | 479 kts | 345° |
| 2026-04-26 08:03 | -27.65220 | 153.39742 | 33422 ft | 481 kts | 348° |
| 2026-04-26 08:03 | -27.61857 | 153.39537 | 33214 ft | 488 kts | 357° |
| 2026-04-26 08:03 | -27.58464 | 153.39680 | 33007 ft | 489 kts | 358° |
| 2026-04-26 08:03 | -27.55065 | 153.39848 | 32803 ft | 489 kts | 358° |
| 2026-04-26 08:04 | -27.51658 | 153.40014 | 32595 ft | 489 kts | 358° |
| 2026-04-26 08:04 | -27.48258 | 153.40164 | 32403 ft | 490 kts | 358° |
| 2026-04-26 08:04 | -27.44848 | 153.40313 | 32036 ft | 492 kts | 358° |
| 2026-04-26 08:04 | -27.41424 | 153.40472 | 31636 ft | 492 kts | 358° |
| 2026-04-26 08:05 | -27.37994 | 153.40633 | 30936 ft | 495 kts | 358° |
| 2026-04-26 08:05 | -27.34548 | 153.40790 | 30219 ft | 495 kts | 358° |
| 2026-04-26 08:05 | -27.31100 | 153.40943 | 29205 ft | 498 kts | 358° |
| 2026-04-26 08:05 | -27.27666 | 153.41098 | 28176 ft | 501 kts | 359° |
| 2026-04-26 08:06 | -27.24138 | 153.41258 | 26484 ft | 517 kts | 360° |
| 2026-04-26 08:06 | -27.20510 | 153.41250 | 25264 ft | 521 kts | 353° |
| 2026-04-26 08:06 | -27.16913 | 153.40576 | 23500 ft | 531 kts | 343° |
| 2026-04-26 08:06 | -27.13403 | 153.39135 | 21485 ft | 542 kts | 333° |
| 2026-04-26 08:07 | -27.10132 | 153.36970 | 19603 ft | 550 kts | 323° |
| 2026-04-26 08:07 | -27.07312 | 153.34090 | 18804 ft | 539 kts | 311° |
| 2026-04-26 08:07 | -27.05168 | 153.30790 | 18773 ft | 510 kts | 300° |
| 2026-04-26 08:07 | -27.03664 | 153.27290 | 18253 ft | 493 kts | 290° |
| 2026-04-26 08:08 | -27.02736 | 153.23594 | 16776 ft | 495 kts | 279° |
| 2026-04-26 08:08 | -27.02445 | 153.19712 | 15067 ft | 502 kts | 268° |
| 2026-04-26 08:08 | -27.02898 | 153.15834 | 14156 ft | 495 kts | 255° |
| 2026-04-26 08:08 | -27.04032 | 153.12367 | 14164 ft | 466 kts | 242° |
| 2026-04-26 08:09 | -27.05697 | 153.09372 | 14034 ft | 443 kts | 230° |
| 2026-04-26 08:09 | -27.07798 | 153.06894 | 13214 ft | 439 kts | 218° |
| 2026-04-26 08:09 | -27.10329 | 153.05012 | 12423 ft | 432 kts | 206° |
| 2026-04-26 08:09 | -27.13007 | 153.03622 | 12176 ft | 414 kts | 200° |
| 2026-04-26 08:10 | -27.15620 | 153.02459 | 12174 ft | 392 kts | 199° |
| 2026-04-26 08:10 | -27.18080 | 153.01422 | 12172 ft | 373 kts | 199° |
| 2026-04-26 08:10 | -27.20438 | 153.00363 | 12168 ft | 356 kts | 201° |
| 2026-04-26 08:10 | -27.22638 | 152.99209 | 12168 ft | 342 kts | 205° |
| 2026-04-26 08:11 | -27.24670 | 152.97920 | 12167 ft | 329 kts | 210° |
| 2026-04-26 08:11 | -27.26522 | 152.96484 | 12166 ft | 318 kts | 215° |
| 2026-04-26 08:11 | -27.28177 | 152.94905 | 12151 ft | 307 kts | 219° |
| 2026-04-26 08:11 | -27.29827 | 152.93310 | 11336 ft | 323 kts | 217° |
| 2026-04-26 08:12 | -27.31542 | 152.91640 | 10974 ft | 324 kts | 223° |
| 2026-04-26 08:12 | -27.32740 | 152.89573 | 11125 ft | 311 kts | 249° |
| 2026-04-26 08:12 | -27.33216 | 152.87262 | 11252 ft | 297 kts | 260° |
| 2026-04-26 08:12 | -27.33518 | 152.85014 | 11338 ft | 283 kts | 258° |
| 2026-04-26 08:13 | -27.33977 | 152.82891 | 11434 ft | 286 kts | 248° |
| 2026-04-26 08:13 | -27.34828 | 152.80757 | 11600 ft | 313 kts | 240° |
| 2026-04-26 08:13 | -27.35896 | 152.78509 | 11798 ft | 339 kts | 240° |
| 2026-04-26 08:13 | -27.36964 | 152.76069 | 11898 ft | 353 kts | 240° |
| 2026-04-26 08:14 | -27.38391 | 152.73757 | 11092 ft | 363 kts | 226° |
| 2026-04-26 08:14 | -27.40268 | 152.71831 | 10302 ft | 368 kts | 214° |
| 2026-04-26 08:14 | -27.42432 | 152.70332 | 9882 ft | 361 kts | 204° |
| 2026-04-26 08:14 | -27.44729 | 152.69274 | 9319 ft | 356 kts | 196° |
| 2026-04-26 08:15 | -27.47119 | 152.68550 | 8385 ft | 364 kts | 188° |
| 2026-04-26 08:15 | -27.49620 | 152.68376 | 7853 ft | 356 kts | 172° |
| 2026-04-26 08:15 | -27.51957 | 152.69115 | 7339 ft | 346 kts | 150° |
| 2026-04-26 08:15 | -27.53775 | 152.70837 | 6451 ft | 348 kts | 125° |
| 2026-04-26 08:16 | -27.54741 | 152.73372 | 5415 ft | 358 kts | 103° |
| 2026-04-26 08:16 | -27.55015 | 152.76133 | 4955 ft | 350 kts | 93° |
| 2026-04-26 08:16 | -27.55070 | 152.78851 | 4597 ft | 341 kts | 92° |
| 2026-04-26 08:16 | -27.54994 | 152.81516 | 3812 ft | 345 kts | 86° |
| 2026-04-26 08:17 | -27.54364 | 152.84130 | 3324 ft | 346 kts | 68° |
| 2026-04-26 08:17 | -27.53237 | 152.86495 | 2891 ft | 339 kts | 64° |
| 2026-04-26 08:17 | -27.52194 | 152.88760 | 3311 ft | 304 kts | 67° |
| 2026-04-26 08:17 | -27.51278 | 152.90890 | 3876 ft | 299 kts | 67° |
| 2026-04-26 08:18 | -27.50375 | 152.92991 | 4525 ft | 297 kts | 67° |
| 2026-04-26 08:18 | -27.49478 | 152.95085 | 5352 ft | 302 kts | 68° |
| 2026-04-26 08:18 | -27.48583 | 152.97217 | 6450 ft | 299 kts | 68° |
| 2026-04-26 08:18 | -27.47720 | 152.99330 | 7539 ft | 303 kts | 68° |
| 2026-04-26 08:19 | -27.46818 | 153.01542 | 7487 ft | 306 kts | 69° |
| 2026-04-26 08:19 | -27.46343 | 153.03980 | 5911 ft | 338 kts | 97° |
| 2026-04-26 08:19 | -27.47028 | 153.06460 | 5809 ft | 322 kts | 119° |
| 2026-04-26 08:19 | -27.48415 | 153.08224 | 6354 ft | 299 kts | 143° |
| 2026-04-26 08:20 | -27.50309 | 153.09272 | 7014 ft | 310 kts | 156° |
| 2026-04-26 08:20 | -27.52457 | 153.09928 | 6110 ft | 330 kts | 168° |
| 2026-04-26 08:20 | -27.54735 | 153.09939 | 5881 ft | 327 kts | 191° |
| 2026-04-26 08:20 | -27.56602 | 153.08538 | 5387 ft | 339 kts | 234° |
| 2026-04-26 08:21 | -27.56931 | 153.05881 | 4539 ft | 361 kts | 284° |
| 2026-04-26 08:21 | -27.55651 | 153.03539 | 4389 ft | 348 kts | 320° |